Terminal Aerodrome Forecast
Issued by NWS Cleveland, OH

Home | Current Version | Previous Version | Text Only | Print | Product List | Glossary On
Versions: 1 2 3 4 5 6 7 8 9 10 11 12 13 14 15 16 17 18
000
FTUS41 KCLE 231100
TAFCAK
TAF
KCAK 231138Z 2312/2412 24006KT P6SM SCT040 OVC100
      TEMPO 2312/2315 4SM -SHRA BR OVC040
     FM231500 28006KT P6SM SCT015 OVC040
      TEMPO 2315/2318 4SM -SHRA BR OVC015
     FM231800 34010KT P6SM OVC015
     FM232030 34010KT P6SM BKN025
     FM232300 34008KT P6SM BKN040
     FM240500 01006KT P6SM SKC=

USA.gov is the U.S. government's official web portal to all federal, state and local government web resources and services.